createdAt,value
2019-02-17T00:00:34.713Z,17.40
2019-02-17T00:03:05.614Z,18.50
2019-02-17T00:05:36.353Z,17.20
2019-02-17T00:08:07.159Z,16.50
2019-02-17T00:10:37.861Z,17.87
2019-02-17T00:13:08.498Z,17.60
2019-02-17T00:15:39.222Z,17.30
2019-02-17T00:18:12.130Z,19.33
2019-02-17T00:20:46.443Z,18.80
2019-02-17T00:23:17.243Z,19.20
2019-02-17T00:25:48.073Z,18.90
2019-02-17T00:28:19.037Z,18.60
2019-02-17T00:30:49.945Z,19.20
2019-02-17T00:33:20.611Z,20.03
2019-02-17T00:35:52.602Z,18.57
2019-02-17T00:38:23.228Z,17.97
2019-02-17T00:40:53.888Z,20.27
2019-02-17T00:43:24.522Z,16.60
2019-02-17T00:45:55.566Z,17.63
2019-02-17T00:48:26.807Z,18.10
2019-02-17T00:50:58.406Z,18.90
2019-02-17T00:53:30.061Z,18.80
2019-02-17T00:56:01.717Z,19.00
2019-02-17T00:58:33.854Z,18.73
2019-02-17T01:01:04.538Z,18.17
2019-02-17T01:03:35.197Z,18.57
2019-02-17T01:06:06.463Z,18.00
2019-02-17T01:08:37.305Z,19.07
2019-02-17T01:11:08.138Z,18.77
2019-02-17T01:13:38.972Z,19.30
2019-02-17T01:16:09.586Z,19.43
2019-02-17T01:18:40.294Z,18.60
2019-02-17T01:21:10.989Z,19.93
2019-02-17T01:23:41.648Z,19.97
2019-02-17T01:26:12.352Z,18.77
2019-02-17T01:28:42.986Z,18.27
2019-02-17T01:31:13.690Z,18.77
2019-02-17T01:33:44.725Z,19.07
2019-02-17T01:36:15.435Z,19.10
2019-02-17T01:38:46.390Z,17.83
2019-02-17T01:41:17.005Z,20.70
2019-02-17T01:43:47.717Z,19.37
2019-02-17T01:46:18.333Z,19.30
2019-02-17T01:48:49.001Z,19.03
2019-02-17T01:51:19.620Z,19.10
2019-02-17T01:53:50.189Z,19.53
2019-02-17T01:56:20.809Z,19.30
2019-02-17T01:58:51.457Z,17.97
2019-02-17T02:01:22.078Z,18.87
2019-02-17T02:03:52.730Z,19.47
2019-02-17T02:06:23.377Z,18.60
2019-02-17T02:08:54.124Z,18.53
2019-02-17T02:11:24.769Z,19.50
2019-02-17T02:13:55.494Z,18.63
2019-02-17T02:16:27.265Z,18.90
2019-02-17T02:18:57.989Z,18.30
2019-02-17T02:21:28.558Z,19.13
2019-02-17T02:23:59.413Z,19.43
2019-02-17T02:26:30.117Z,20.07
2019-02-17T02:29:00.681Z,19.47
2019-02-17T02:31:31.334Z,20.70
2019-02-17T02:34:01.969Z,19.00
2019-02-17T02:36:32.534Z,19.80
2019-02-17T02:39:04.171Z,20.50
2019-02-17T02:41:35.873Z,20.57
2019-02-17T05:43:48.938Z,21.57
2019-02-17T05:46:19.767Z,21.07
2019-02-17T05:48:50.601Z,22.53
2019-02-17T05:51:22.335Z,21.30
2019-02-17T05:53:53.294Z,21.37
2019-02-17T05:56:24.061Z,22.27
2019-02-17T05:58:55.791Z,20.70
2019-02-17T06:01:26.676Z,21.37
2019-02-17T06:03:57.594Z,20.10
2019-02-17T06:06:28.321Z,22.50
2019-02-17T06:08:59.003Z,22.17
2019-02-17T06:11:29.702Z,20.90
2019-02-17T06:14:00.438Z,21.23
2019-02-17T06:16:31.326Z,22.37
2019-02-17T06:19:02.144Z,21.77
2019-02-17T06:21:34.095Z,20.03
2019-02-17T06:24:04.789Z,21.77
2019-02-17T06:26:35.515Z,22.77
2019-02-17T06:29:07.613Z,20.33
2019-02-17T06:31:42.552Z,21.83
2019-02-17T06:38:19.391Z,21.43
2019-02-17T06:40:53.009Z,22.37
2019-02-17T06:43:32.993Z,22.37
2019-02-17T06:46:03.900Z,23.30
2019-02-17T06:48:34.740Z,23.00
2019-02-17T06:51:05.464Z,22.00
2019-02-17T06:53:36.362Z,22.73
2019-02-17T06:56:24.696Z,20.63
2019-02-17T06:58:55.855Z,22.87
2019-02-17T07:01:26.665Z,22.80
2019-02-17T07:03:57.480Z,24.20
2019-02-17T07:06:47.291Z,22.30
2019-02-17T07:09:18.139Z,23.40
2019-02-17T07:11:48.963Z,22.10
2019-02-17T07:14:20.417Z,23.40
2019-02-17T07:16:51.239Z,22.80
2019-02-17T07:19:22.031Z,22.43
2019-02-17T07:21:52.813Z,23.83
2019-02-17T07:24:23.597Z,22.97
2019-02-17T07:26:56.377Z,24.80
2019-02-17T07:29:27.169Z,22.90
2019-02-17T07:31:57.950Z,21.40
2019-02-17T07:34:30.896Z,22.43
2019-02-17T07:37:03.162Z,21.20
2019-02-17T07:39:34.073Z,22.97
2019-02-17T07:42:04.983Z,22.20
2019-02-17T07:44:35.823Z,22.30
2019-02-17T07:47:06.639Z,21.97
2019-02-17T07:49:37.549Z,21.60
2019-02-17T07:52:08.307Z,23.07
2019-02-17T07:54:39.198Z,21.03
2019-02-17T07:57:09.992Z,21.43
2019-02-17T07:59:40.830Z,22.90
2019-02-17T08:03:18.547Z,21.93
2019-02-17T10:17:53.749Z,16.40
2019-02-17T10:20:24.707Z,16.87
2019-02-17T10:22:55.458Z,17.20
2019-02-17T10:25:26.077Z,17.40
2019-02-17T10:27:56.732Z,16.60
2019-02-17T10:30:27.424Z,16.27
2019-02-17T10:32:58.141Z,14.87
2019-02-17T10:35:28.777Z,17.17
2019-02-17T10:37:59.413Z,16.67
2019-02-17T10:40:30.026Z,16.00
2019-02-17T10:43:00.673Z,17.20
2019-02-17T10:45:31.281Z,17.70
2019-02-17T10:48:01.857Z,16.20
2019-02-17T10:50:32.561Z,17.70
2019-02-17T10:53:03.217Z,17.17
2019-02-17T10:55:33.861Z,15.93
2019-02-17T10:58:04.577Z,16.50
2019-02-17T11:00:35.137Z,15.30
2019-02-17T11:03:09.656Z,13.90
2019-02-17T11:05:40.290Z,14.40
2019-02-17T11:08:11.104Z,14.40
2019-02-17T11:10:41.717Z,13.37
2019-02-17T11:13:12.461Z,13.07
2019-02-17T11:15:43.096Z,12.70
2019-02-17T11:18:13.753Z,13.80
2019-02-17T11:20:44.373Z,14.30
2019-02-17T11:23:14.952Z,14.00
2019-02-17T11:25:45.575Z,13.63
2019-02-17T11:28:16.223Z,12.00
2019-02-17T11:30:46.929Z,12.77
2019-02-17T11:33:17.649Z,12.00
2019-02-17T11:35:48.293Z,12.50
2019-02-17T11:38:19.016Z,12.50
2019-02-17T11:40:49.728Z,12.70
2019-02-17T11:43:20.394Z,12.80
2019-02-17T11:45:51.025Z,12.50
2019-02-17T11:48:21.674Z,11.50
2019-02-17T11:50:51.793Z,11.10
2019-02-17T11:53:22.465Z,11.27
2019-02-17T11:55:53.169Z,11.30
2019-02-17T11:58:24.065Z,11.50
2019-02-17T12:00:54.700Z,11.33
2019-02-17T12:03:25.357Z,11.83
2019-02-17T12:05:56.057Z,11.73
2019-02-17T12:08:26.713Z,11.53
2019-02-17T12:10:57.419Z,10.43
2019-02-17T12:13:28.145Z,9.87
2019-02-17T12:15:58.758Z,11.43
2019-02-17T12:18:29.397Z,9.67
2019-02-17T12:21:24.929Z,10.60
2019-02-17T12:24:15.809Z,8.40
2019-02-17T12:27:14.655Z,8.50
2019-02-17T12:29:51.478Z,7.30
2019-02-17T12:32:27.147Z,6.83
2019-02-17T12:34:57.890Z,7.30
2019-02-17T12:37:28.512Z,7.40
2019-02-17T12:39:59.236Z,7.60
2019-02-17T12:42:29.913Z,7.40
2019-02-17T12:45:00.593Z,6.90
2019-02-17T12:47:31.266Z,7.00
2019-02-17T12:50:01.963Z,8.03
2019-02-17T12:52:32.669Z,6.80
2019-02-17T12:55:03.345Z,7.90
2019-02-17T12:57:34.110Z,6.97
2019-02-17T13:00:05.572Z,7.63
2019-02-17T13:02:36.262Z,7.43
2019-02-17T13:05:08.079Z,6.83
2019-02-17T13:07:38.860Z,6.50
2019-02-17T13:10:10.107Z,6.60
2019-02-17T13:12:40.798Z,6.97
2019-02-17T13:15:11.917Z,6.40
2019-02-17T13:17:42.676Z,6.67
2019-02-17T13:20:13.314Z,6.60
2019-02-17T13:22:44.101Z,6.37
2019-02-17T13:25:15.037Z,7.17
2019-02-17T13:27:46.044Z,6.50
2019-02-17T13:30:19.201Z,5.93
2019-02-17T13:32:50.595Z,6.10
2019-02-17T13:35:21.503Z,5.57
2019-02-17T13:37:52.225Z,5.87
2019-02-17T13:40:23.169Z,5.40
2019-02-17T13:42:56.816Z,5.80
2019-02-17T13:45:27.506Z,5.70
2019-02-17T13:47:58.426Z,4.60
2019-02-17T13:50:29.177Z,4.83
2019-02-17T13:52:59.992Z,4.73
2019-02-17T13:55:30.686Z,4.60
2019-02-17T13:58:01.353Z,4.40
2019-02-17T14:00:32.070Z,4.73
2019-02-17T14:03:04.493Z,4.60
2019-02-17T14:05:36.957Z,4.27
2019-02-17T14:08:07.845Z,4.70
2019-02-17T14:10:38.686Z,4.97
2019-02-17T14:13:10.255Z,4.10
2019-02-17T14:15:41.008Z,4.63
2019-02-17T14:18:14.437Z,5.17
2019-02-17T14:20:47.408Z,4.80
2019-02-17T14:23:18.145Z,4.40
2019-02-17T14:25:49.192Z,5.00
2019-02-17T14:28:20.013Z,4.70
2019-02-17T14:30:50.709Z,4.37
2019-02-17T14:33:21.341Z,4.30
2019-02-17T14:35:52.053Z,4.50
2019-02-17T14:38:22.755Z,5.33
2019-02-17T14:40:53.377Z,4.90
2019-02-17T14:43:24.937Z,4.50
2019-02-17T14:45:55.640Z,4.90
2019-02-17T14:48:26.253Z,4.17
2019-02-17T14:50:56.877Z,4.17
2019-02-17T14:53:27.563Z,3.97
2019-02-17T14:55:58.266Z,4.17
2019-02-17T14:58:28.882Z,4.60
2019-02-17T15:00:59.505Z,4.60
2019-02-17T15:03:30.207Z,4.70
2019-02-17T15:06:00.923Z,6.10
2019-02-17T15:08:32.606Z,6.30
2019-02-17T15:11:03.325Z,6.27
2019-02-17T15:13:34.020Z,6.97
2019-02-17T15:16:04.735Z,5.87
2019-02-17T15:18:35.422Z,6.03
2019-02-17T15:21:06.054Z,6.03
2019-02-17T15:23:36.674Z,5.03
2019-02-17T15:26:07.325Z,5.00
2019-02-17T15:28:37.913Z,5.50
2019-02-17T15:31:08.533Z,5.60
2019-02-17T15:33:39.056Z,6.07
2019-02-17T15:36:09.615Z,5.93
2019-02-17T15:38:40.300Z,4.30
2019-02-17T15:41:10.999Z,5.43
2019-02-17T15:43:41.600Z,7.70
2019-02-17T15:46:13.286Z,6.90
2019-02-17T15:48:43.925Z,5.17
2019-02-17T15:51:14.545Z,7.10
2019-02-17T15:53:45.093Z,10.37
2019-02-17T15:56:15.821Z,7.00
2019-02-17T15:58:46.512Z,6.47
2019-02-17T16:01:17.168Z,4.73
2019-02-17T16:03:48.069Z,7.43
2019-02-17T16:06:18.762Z,7.10
2019-02-17T16:08:49.460Z,5.30
2019-02-17T16:11:20.101Z,6.43
2019-02-17T16:13:50.646Z,6.07
2019-02-17T16:16:21.213Z,5.30
2019-02-17T16:18:51.838Z,7.20
2019-02-17T16:21:23.570Z,8.07
2019-02-17T16:23:54.297Z,10.17
2019-02-17T16:26:24.992Z,10.20
2019-02-17T16:28:55.687Z,6.40
2019-02-17T16:31:26.341Z,7.33
2019-02-17T16:33:56.967Z,7.40
2019-02-17T16:36:27.687Z,5.80
2019-02-17T16:38:58.691Z,7.23
2019-02-17T16:41:29.675Z,7.83
2019-02-17T16:44:01.944Z,7.33
2019-02-17T16:46:33.053Z,6.83
2019-02-17T16:49:03.812Z,6.63
2019-02-17T16:51:34.448Z,6.90
2019-02-17T16:54:07.893Z,8.70
2019-02-17T16:56:38.526Z,9.13
2019-02-17T16:59:09.147Z,10.80
2019-02-17T17:01:39.873Z,10.07
2019-02-17T17:04:10.602Z,11.60
2019-02-17T17:06:41.361Z,15.37
2019-02-17T17:09:12.287Z,9.90
2019-02-17T17:11:42.920Z,8.33
2019-02-17T17:14:13.482Z,8.67
2019-02-17T17:16:44.145Z,9.20
2019-02-17T17:19:14.863Z,7.17
2019-02-17T17:21:45.574Z,7.70
2019-02-17T17:24:16.298Z,7.77
2019-02-17T17:26:47.006Z,8.07
2019-02-17T17:29:17.608Z,7.30
2019-02-17T17:31:48.241Z,7.77
2019-02-17T17:34:18.769Z,8.40
2019-02-17T17:36:50.373Z,7.70
2019-02-17T17:39:20.918Z,7.93
2019-02-17T17:41:51.737Z,10.20
2019-02-17T17:44:22.341Z,11.37
2019-02-17T17:46:52.896Z,11.87
2019-02-17T17:49:23.526Z,10.80
2019-02-17T17:51:54.158Z,19.30
2019-02-17T17:54:24.763Z,21.57
2019-02-17T17:56:55.449Z,22.93
2019-02-17T17:59:26.115Z,11.07
2019-02-17T18:01:57.729Z,14.40
2019-02-17T18:04:28.406Z,15.80
2019-02-17T18:06:59.114Z,12.97
2019-02-17T18:09:29.758Z,10.00
2019-02-17T18:12:00.385Z,7.87
2019-02-17T18:14:30.921Z,7.87
2019-02-17T18:17:01.485Z,8.13
2019-02-17T18:19:32.173Z,7.63
2019-02-17T18:22:02.815Z,15.00
2019-02-17T18:24:33.825Z,20.90
2019-02-17T18:27:04.878Z,17.67
2019-02-17T18:29:35.434Z,15.60
2019-02-17T18:32:06.184Z,13.53
2019-02-17T18:34:36.805Z,9.40
2019-02-17T18:37:07.646Z,10.43
2019-02-17T18:39:38.265Z,9.63
2019-02-17T18:42:08.934Z,8.50
2019-02-17T18:44:39.604Z,9.30
2019-02-17T18:47:10.274Z,10.43
2019-02-17T18:49:40.962Z,10.23
2019-02-17T18:52:11.545Z,9.20
2019-02-17T18:54:43.130Z,8.60
2019-02-17T18:57:13.789Z,10.33
2019-02-17T18:59:44.441Z,11.10
2019-02-17T19:02:15.133Z,11.63
2019-02-17T19:04:47.624Z,12.97
2019-02-17T19:07:18.399Z,13.07
2019-02-17T19:09:48.956Z,13.27
2019-02-17T19:12:19.596Z,13.73
2019-02-17T19:14:50.215Z,14.10
2019-02-17T19:17:20.856Z,14.73
2019-02-17T19:19:51.406Z,14.50
2019-02-17T19:22:22.064Z,14.20
2019-02-17T19:24:52.693Z,13.03
2019-02-17T19:27:23.621Z,12.80
2019-02-17T19:29:54.174Z,13.60
2019-02-17T19:32:25.795Z,13.37
2019-02-17T19:34:56.340Z,13.80
2019-02-17T19:37:26.982Z,12.70
2019-02-17T19:39:59.014Z,10.53
2019-02-17T19:42:29.626Z,9.93
2019-02-17T19:45:01.210Z,8.53
2019-02-17T19:47:32.961Z,9.90
2019-02-17T19:50:03.707Z,11.10
2019-02-17T19:52:34.481Z,9.30
2019-02-17T19:55:05.293Z,9.80
2019-02-17T19:57:35.943Z,11.40
2019-02-17T20:00:10.602Z,12.00
2019-02-17T20:03:02.372Z,12.07
2019-02-17T20:05:35.478Z,12.57
2019-02-17T20:08:06.362Z,12.53
2019-02-17T20:10:37.096Z,12.07
2019-02-17T20:13:08.437Z,11.07
2019-02-17T20:15:39.252Z,11.80
2019-02-17T20:18:09.888Z,11.03
2019-02-17T20:20:40.448Z,11.23
2019-02-17T20:23:11.138Z,10.47
2019-02-17T20:25:41.768Z,11.40
2019-02-17T20:28:12.453Z,10.80
2019-02-17T20:30:43.246Z,10.70
2019-02-17T20:33:14.049Z,10.00
2019-02-17T20:35:44.710Z,13.30
2019-02-17T20:38:15.326Z,14.93
2019-02-17T20:40:45.886Z,12.43
2019-02-17T20:43:16.865Z,13.67
2019-02-17T20:45:47.551Z,10.40
2019-02-17T20:48:18.169Z,10.93
2019-02-17T20:50:48.884Z,11.53
2019-02-17T20:53:19.476Z,9.80
2019-02-17T20:55:50.113Z,9.90
2019-02-17T20:58:20.648Z,10.37
2019-02-17T21:00:51.308Z,9.70
2019-02-17T21:03:21.915Z,10.90
2019-02-17T21:05:52.557Z,9.73
2019-02-17T21:08:23.310Z,11.10
2019-02-17T21:10:54.026Z,11.33
2019-02-17T21:13:24.718Z,12.07
2019-02-17T21:15:55.285Z,12.20
2019-02-17T21:18:26.945Z,11.70
2019-02-17T21:20:57.644Z,11.70
2019-02-17T21:23:28.191Z,11.73
2019-02-17T21:25:58.750Z,11.83
2019-02-17T21:28:29.373Z,12.37
2019-02-17T21:30:59.937Z,12.30
2019-02-17T21:33:30.663Z,13.30
2019-02-17T21:36:01.375Z,16.57
2019-02-17T21:38:32.080Z,15.23
2019-02-17T21:41:09.296Z,14.73
2019-02-17T21:43:34.903Z,11.93
2019-02-17T21:46:05.541Z,9.33
2019-02-17T21:48:36.250Z,9.80
2019-02-17T21:51:06.906Z,10.97
2019-02-17T21:53:37.473Z,11.20
2019-02-17T21:56:08.117Z,12.17
2019-02-17T21:58:38.757Z,12.50
2019-02-17T22:01:09.326Z,11.77
2019-02-17T22:03:39.937Z,10.60
2019-02-17T22:06:10.632Z,11.53
2019-02-17T22:08:41.271Z,11.50
2019-02-17T22:11:11.980Z,14.37
2019-02-17T22:13:42.669Z,12.67
2019-02-17T22:16:13.302Z,12.70
2019-02-17T22:18:43.933Z,14.40
2019-02-17T22:21:14.573Z,12.50
2019-02-17T22:23:45.200Z,12.87
2019-02-17T22:26:15.853Z,12.50
2019-02-17T22:28:46.663Z,12.60
2019-02-17T22:31:17.317Z,12.80
2019-02-17T22:33:47.932Z,12.10
2019-02-17T22:36:18.583Z,16.40
2019-02-17T22:38:49.189Z,17.93
2019-02-17T22:41:20.797Z,24.73
2019-02-17T22:43:51.340Z,26.30
2019-02-17T22:46:22.067Z,23.90
2019-02-17T22:48:52.685Z,24.57
2019-02-17T22:51:23.394Z,21.00
2019-02-17T22:53:53.937Z,18.60
2019-02-17T22:56:24.663Z,13.47
2019-02-17T22:58:55.276Z,11.83
2019-02-17T23:01:30.656Z,11.80
2019-02-17T23:04:01.198Z,12.60
2019-02-17T23:06:31.773Z,11.70
2019-02-17T23:09:02.578Z,12.63
2019-02-17T23:11:34.671Z,11.83
2019-02-17T23:14:05.589Z,11.60
2019-02-17T23:16:36.253Z,12.13
2019-02-17T23:19:06.877Z,12.00
2019-02-17T23:21:37.620Z,12.70
2019-02-17T23:24:08.246Z,12.77
2019-02-17T23:26:38.964Z,12.07
2019-02-17T23:29:09.589Z,11.83
2019-02-17T23:31:40.231Z,12.40
2019-02-17T23:34:10.928Z,12.87
2019-02-17T23:36:41.581Z,12.23
2019-02-17T23:39:12.207Z,12.17
2019-02-17T23:41:42.937Z,12.00
2019-02-17T23:44:13.644Z,12.10
2019-02-17T23:46:44.208Z,12.13
2019-02-17T23:49:14.833Z,12.90
2019-02-17T23:54:44.030Z,14.17
2019-02-17T23:57:18.529Z,12.83
2019-02-17T23:59:49.430Z,12.40
